createdAt,value
2023-02-26T00:02:02.867Z,13.24
2023-02-26T00:04:32.017Z,13.25
2023-02-26T00:07:01.010Z,13.27
2023-02-26T00:09:30.258Z,13.15
2023-02-26T00:12:00.216Z,13.28
2023-02-26T00:14:31.110Z,13.23
2023-02-26T00:17:19.001Z,13.23
2023-02-26T00:19:48.545Z,13.16
2023-02-26T00:22:18.214Z,13.23
2023-02-26T00:24:47.321Z,13.18
2023-02-26T00:27:16.314Z,13.20
2023-02-26T00:29:47.332Z,13.23
2023-02-26T00:32:18.301Z,13.21
2023-02-26T00:34:48.454Z,13.19
2023-02-26T00:37:29.062Z,13.17
2023-02-26T00:40:10.441Z,13.20
2023-02-26T00:42:39.990Z,13.08
2023-02-26T00:45:15.588Z,13.14
2023-02-26T00:47:52.435Z,13.07
2023-02-26T00:50:23.629Z,13.14
2023-02-26T00:53:02.822Z,13.16
2023-02-26T00:55:32.284Z,13.18
2023-02-26T00:58:01.198Z,13.05
2023-02-26T01:00:33.445Z,13.09
2023-02-26T01:03:03.877Z,13.07
2023-02-26T01:05:33.652Z,13.07
2023-02-26T01:08:07.782Z,13.03
2023-02-26T01:10:37.540Z,12.98
2023-02-26T01:13:07.243Z,13.06
2023-02-26T01:15:38.398Z,13.01
2023-02-26T01:18:13.713Z,13.03
2023-02-26T01:20:48.423Z,13.03
2023-02-26T01:23:21.464Z,12.98
2023-02-26T01:25:55.274Z,12.91
2023-02-26T01:28:25.798Z,12.96
2023-02-26T01:31:00.972Z,12.97
2023-02-26T01:33:34.394Z,13.00
2023-02-26T01:36:09.234Z,12.96
2023-02-26T01:38:45.262Z,12.90
2023-02-26T01:41:32.850Z,12.68
2023-02-26T01:44:14.638Z,12.85
2023-02-26T01:46:59.785Z,12.78
2023-02-26T01:49:29.685Z,12.57
2023-02-26T01:52:00.502Z,12.62
2023-02-26T01:54:31.961Z,12.53
2023-02-26T01:57:05.331Z,12.58
2023-02-26T01:59:36.153Z,12.57
2023-02-26T02:02:10.297Z,12.64
2023-02-26T02:04:40.499Z,12.56
2023-02-26T02:07:10.182Z,12.43
2023-02-26T02:09:39.617Z,12.51
2023-02-26T02:12:28.549Z,12.60
2023-02-26T02:15:09.795Z,12.52
2023-02-26T02:17:53.535Z,12.40
2023-02-26T02:20:47.918Z,12.50
2023-02-26T02:23:25.934Z,12.47
2023-02-26T02:26:30.817Z,12.45
2023-02-26T02:29:32.221Z,12.44
2023-02-26T02:32:09.176Z,12.33
2023-02-26T02:34:43.184Z,12.50
2023-02-26T02:37:20.479Z,12.56
2023-02-26T02:39:54.400Z,12.57
2023-02-26T02:42:30.081Z,12.57
2023-02-26T02:45:02.622Z,12.54
2023-02-26T02:47:38.735Z,12.57
2023-02-26T02:50:12.880Z,12.61
2023-02-26T02:52:47.840Z,12.60
2023-02-26T02:55:22.421Z,12.58
2023-02-26T02:57:59.673Z,12.48
2023-02-26T03:00:31.817Z,12.55
2023-02-26T03:03:10.839Z,12.46
2023-02-26T03:05:39.913Z,12.33
2023-02-26T03:08:13.095Z,12.26
2023-02-26T03:10:43.337Z,12.23
2023-02-26T03:13:18.983Z,12.13
2023-02-26T03:16:03.539Z,12.13
2023-02-26T03:18:47.213Z,12.03
2023-02-26T03:21:23.158Z,12.05
2023-02-26T03:24:00.818Z,11.85
2023-02-26T03:26:35.166Z,11.99
2023-02-26T03:29:11.247Z,12.07
2023-02-26T03:31:49.491Z,12.13
2023-02-26T03:34:26.113Z,12.24
2023-02-26T03:37:00.492Z,12.22
2023-02-26T03:39:35.917Z,12.15
2023-02-26T03:42:09.182Z,12.24
2023-02-26T03:44:53.895Z,12.34
2023-02-26T03:47:24.392Z,12.34
2023-02-26T03:50:03.289Z,12.28
2023-02-26T03:52:39.838Z,12.31
2023-02-26T03:55:42.575Z,12.35
2023-02-26T03:58:33.326Z,12.41
2023-02-26T04:01:43.176Z,12.50
2023-02-26T04:04:18.980Z,12.51
2023-02-26T04:06:50.005Z,12.51
2023-02-26T04:09:19.205Z,12.56
2023-02-26T04:11:50.479Z,12.59
2023-02-26T04:14:20.430Z,12.51
2023-02-26T04:16:50.324Z,12.55
2023-02-26T04:19:19.836Z,12.46
2023-02-26T04:21:50.951Z,12.47
2023-02-26T04:24:20.226Z,12.44
2023-02-26T04:26:50.003Z,12.50
2023-02-26T04:29:19.637Z,12.52
2023-02-26T04:31:48.896Z,12.55
2023-02-26T04:34:18.517Z,12.41
2023-02-26T04:36:47.431Z,12.47
2023-02-26T04:39:17.817Z,12.33
2023-02-26T04:41:47.048Z,12.41
2023-02-26T04:44:16.506Z,12.20
2023-02-26T04:46:45.678Z,12.33
2023-02-26T04:49:14.736Z,12.38
2023-02-26T04:51:46.302Z,12.34
2023-02-26T04:54:19.072Z,12.39
2023-02-26T04:56:47.980Z,12.34
2023-02-26T04:59:17.804Z,12.43
2023-02-26T05:01:47.739Z,12.46
2023-02-26T05:04:17.028Z,12.47
2023-02-26T05:06:50.124Z,12.44
2023-02-26T05:09:20.616Z,12.37
2023-02-26T05:11:49.954Z,12.44
2023-02-26T05:14:26.243Z,12.39
2023-02-26T05:16:56.654Z,12.32
2023-02-26T05:19:26.062Z,12.24
2023-02-26T05:21:55.018Z,12.02
2023-02-26T05:24:25.403Z,12.05
2023-02-26T05:26:54.495Z,12.12
2023-02-26T05:29:24.802Z,12.10
2023-02-26T05:31:56.071Z,12.00
2023-02-26T05:34:25.248Z,12.04
2023-02-26T05:36:54.189Z,12.08
2023-02-26T05:39:24.584Z,11.98
2023-02-26T05:41:55.593Z,11.86
2023-02-26T05:44:25.063Z,11.92
2023-02-26T05:46:54.185Z,11.91
2023-02-26T05:49:23.092Z,11.90
2023-02-26T05:51:52.177Z,11.96
2023-02-26T05:54:21.265Z,11.97
2023-02-26T05:56:51.948Z,12.28
2023-02-26T05:59:21.100Z,12.22
2023-02-26T06:01:50.435Z,12.36
2023-02-26T06:04:19.502Z,12.41
2023-02-26T06:06:48.565Z,12.52
2023-02-26T06:09:17.563Z,12.76
2023-02-26T06:11:46.650Z,12.95
2023-02-26T06:14:17.493Z,13.12
2023-02-26T06:16:46.799Z,13.26
2023-02-26T06:19:15.877Z,13.38
2023-02-26T06:21:45.052Z,13.57
2023-02-26T06:24:13.994Z,13.75
2023-02-26T06:26:43.025Z,13.74
2023-02-26T06:29:12.243Z,13.86
2023-02-26T06:31:43.041Z,14.02
2023-02-26T06:34:12.402Z,14.04
2023-02-26T06:36:41.820Z,14.13
2023-02-26T06:39:12.869Z,14.40
2023-02-26T06:41:41.981Z,14.48
2023-02-26T06:44:12.039Z,14.68
2023-02-26T06:46:41.143Z,14.60
2023-02-26T06:49:12.758Z,14.70
2023-02-26T06:51:42.148Z,14.75
2023-02-26T06:54:11.144Z,14.86
2023-02-26T06:56:40.184Z,14.79
2023-02-26T06:59:10.741Z,14.75
2023-02-26T07:01:40.191Z,14.83
2023-02-26T07:04:10.702Z,14.89
2023-02-26T07:06:40.028Z,14.75
2023-02-26T07:09:09.240Z,14.80
2023-02-26T07:11:38.336Z,14.73
2023-02-26T07:14:07.503Z,14.85
2023-02-26T07:16:36.793Z,14.95
2023-02-26T07:19:05.798Z,14.74
2023-02-26T07:21:36.532Z,14.78
2023-02-26T07:24:06.026Z,14.95
2023-02-26T07:26:35.095Z,15.02
2023-02-26T07:29:04.046Z,15.21
2023-02-26T07:31:33.792Z,15.39
2023-02-26T07:34:02.838Z,15.39
2023-02-26T07:36:32.109Z,15.36
2023-02-26T07:39:02.806Z,15.50
2023-02-26T07:41:31.903Z,15.53
2023-02-26T07:44:00.990Z,15.60
2023-02-26T07:46:30.188Z,15.74
2023-02-26T07:48:59.415Z,15.94
2023-02-26T07:51:28.628Z,16.04
2023-02-26T07:53:58.497Z,16.14
2023-02-26T07:56:29.109Z,16.17
2023-02-26T07:58:58.293Z,16.21
2023-02-26T08:01:27.386Z,16.19
2023-02-26T08:03:57.183Z,16.12
2023-02-26T08:06:26.771Z,16.13
2023-02-26T08:08:56.154Z,16.10
2023-02-26T08:11:25.253Z,16.10
2023-02-26T08:13:57.006Z,16.08
2023-02-26T08:16:26.573Z,16.02
2023-02-26T08:18:57.377Z,15.91
2023-02-26T08:21:26.935Z,15.93
2023-02-26T08:23:57.031Z,15.92
2023-02-26T08:26:26.426Z,16.06
2023-02-26T08:28:58.682Z,16.17
2023-02-26T08:31:28.766Z,16.33
2023-02-26T08:33:58.138Z,16.36
2023-02-26T08:36:29.144Z,16.34
2023-02-26T08:38:58.962Z,16.50
2023-02-26T08:41:30.851Z,16.56
2023-02-26T08:44:01.824Z,16.64
2023-02-26T08:46:31.035Z,16.71
2023-02-26T08:49:00.340Z,16.63
2023-02-26T08:51:31.335Z,16.62
2023-02-26T08:54:00.799Z,16.63
2023-02-26T08:56:29.744Z,16.78
2023-02-26T08:58:58.920Z,16.77
2023-02-26T09:01:29.686Z,16.68
2023-02-26T09:03:59.358Z,16.85
2023-02-26T09:06:28.938Z,17.19
2023-02-26T09:08:58.433Z,17.33
2023-02-26T09:11:31.204Z,17.36
2023-02-26T09:14:00.586Z,17.49
2023-02-26T09:16:32.277Z,17.36
2023-02-26T09:19:02.987Z,17.28
2023-02-26T09:21:32.147Z,17.50
2023-02-26T09:24:01.292Z,17.62
2023-02-26T09:26:30.680Z,17.63
2023-02-26T09:28:59.885Z,17.52
2023-02-26T09:31:29.657Z,17.78
2023-02-26T09:34:00.485Z,17.76
2023-02-26T09:36:31.506Z,18.08
2023-02-26T09:39:01.051Z,18.29
2023-02-26T09:41:33.513Z,18.76
2023-02-26T09:44:13.572Z,19.36
2023-02-26T09:46:50.577Z,19.72
2023-02-26T09:49:29.335Z,20.14
2023-02-26T09:52:04.083Z,20.37
2023-02-26T09:54:47.832Z,20.28
2023-02-26T09:57:27.876Z,20.33
2023-02-26T09:59:57.393Z,19.84
2023-02-26T10:02:35.385Z,19.90
2023-02-26T10:05:28.423Z,20.00
2023-02-26T10:08:03.608Z,19.78
2023-02-26T10:10:39.773Z,19.68
2023-02-26T10:13:21.497Z,19.83
2023-02-26T10:15:53.863Z,19.98
2023-02-26T10:18:28.189Z,20.06
2023-02-26T10:21:02.729Z,20.23
2023-02-26T10:23:39.442Z,20.28
2023-02-26T10:26:24.479Z,20.23
2023-02-26T10:29:01.609Z,20.18
2023-02-26T10:31:37.067Z,20.27
2023-02-26T10:34:15.666Z,20.15
2023-02-26T10:36:53.737Z,20.20
2023-02-26T10:39:34.891Z,20.03
2023-02-26T10:42:11.257Z,20.41
2023-02-26T10:44:46.275Z,20.20
2023-02-26T10:47:24.670Z,20.45
2023-02-26T10:49:56.649Z,20.46
2023-02-26T10:52:30.122Z,20.65
2023-02-26T10:55:30.696Z,20.25
2023-02-26T10:58:06.642Z,20.12
2023-02-26T11:00:36.892Z,19.98
2023-02-26T11:03:08.201Z,19.88
2023-02-26T11:05:37.742Z,19.72
2023-02-26T11:08:14.981Z,19.72
2023-02-26T11:10:49.657Z,19.40
2023-02-26T11:13:18.800Z,19.41
2023-02-26T11:15:51.590Z,19.45
2023-02-26T11:18:30.512Z,19.40
2023-02-26T11:21:01.673Z,19.13
2023-02-26T11:23:34.825Z,19.14
2023-02-26T11:26:07.836Z,19.08
2023-02-26T11:28:39.780Z,19.21
2023-02-26T11:31:12.234Z,19.28
2023-02-26T11:33:46.250Z,18.94
2023-02-26T11:36:18.271Z,18.58
2023-02-26T11:38:54.597Z,18.55
2023-02-26T11:41:25.622Z,18.43
2023-02-26T11:44:03.128Z,18.31
2023-02-26T11:46:32.995Z,18.07
2023-02-26T11:49:03.333Z,17.91
2023-02-26T11:51:32.396Z,17.84
2023-02-26T11:54:03.492Z,17.76
2023-02-26T11:56:34.712Z,17.61
2023-02-26T11:59:08.878Z,17.36
2023-02-26T12:01:40.079Z,17.34
2023-02-26T12:04:12.702Z,17.27
2023-02-26T12:06:42.298Z,17.24
2023-02-26T12:09:15.260Z,17.12
2023-02-26T12:12:15.327Z,17.04
2023-02-26T12:15:06.501Z,17.06
2023-02-26T12:17:54.709Z,17.19
2023-02-26T12:20:30.405Z,17.03
2023-02-26T12:23:27.873Z,17.07
2023-02-26T12:26:21.408Z,17.15
2023-02-26T12:29:12.591Z,17.22
2023-02-26T12:32:10.419Z,17.28
2023-02-26T12:35:05.378Z,16.95
2023-02-26T12:37:48.852Z,16.95
2023-02-26T12:40:38.977Z,17.23
2023-02-26T12:43:17.437Z,17.38
2023-02-26T12:45:54.285Z,17.46
2023-02-26T12:48:53.312Z,17.49
2023-02-26T12:51:40.190Z,17.27
2023-02-26T12:54:26.090Z,17.37
2023-02-26T12:57:32.405Z,17.37
2023-02-26T13:00:30.338Z,17.51
2023-02-26T13:03:40.316Z,17.87
2023-02-26T13:06:42.424Z,17.76
2023-02-26T13:09:25.868Z,17.40
2023-02-26T13:12:20.038Z,17.37
2023-02-26T13:14:59.694Z,17.50
2023-02-26T13:17:38.229Z,17.84
2023-02-26T13:20:15.332Z,18.10
2023-02-26T13:22:49.489Z,18.04
2023-02-26T13:25:26.437Z,17.86
2023-02-26T13:28:00.176Z,17.80
2023-02-26T13:30:35.323Z,17.73
2023-02-26T13:33:08.692Z,17.36
2023-02-26T13:35:42.248Z,17.34
2023-02-26T13:38:21.510Z,17.25
2023-02-26T13:41:02.003Z,17.10
2023-02-26T13:43:52.701Z,17.29
2023-02-26T13:46:35.819Z,17.39
2023-02-26T13:49:25.149Z,17.34
2023-02-26T13:51:56.213Z,17.20
2023-02-26T13:54:44.861Z,17.11
2023-02-26T13:57:36.988Z,17.12
2023-02-26T14:00:26.511Z,17.10
2023-02-26T14:02:57.917Z,16.97
2023-02-26T14:05:51.420Z,16.92
2023-02-26T14:08:48.091Z,16.97
2023-02-26T14:11:43.534Z,16.62
2023-02-26T14:14:25.217Z,16.80
2023-02-26T14:17:30.223Z,16.67
2023-02-26T14:20:20.861Z,16.86
2023-02-26T14:22:54.452Z,16.77
2023-02-26T14:25:33.289Z,16.63
2023-02-26T14:28:21.308Z,16.66
2023-02-26T14:30:53.996Z,16.49
2023-02-26T14:33:31.263Z,16.43
2023-02-26T14:36:01.462Z,16.34
2023-02-26T14:38:33.403Z,16.36
2023-02-26T14:41:07.896Z,16.32
2023-02-26T14:43:41.647Z,16.25
2023-02-26T14:46:12.695Z,16.19
2023-02-26T14:48:44.041Z,16.09
2023-02-26T14:51:27.742Z,16.02
2023-02-26T14:54:15.169Z,15.91
2023-02-26T14:56:55.809Z,15.88
2023-02-26T14:59:45.595Z,15.82
2023-02-26T15:02:28.502Z,15.76
2023-02-26T15:05:22.451Z,15.80
2023-02-26T15:08:05.651Z,15.70
2023-02-26T15:10:50.295Z,15.70
2023-02-26T15:13:42.010Z,15.60
2023-02-26T15:16:27.193Z,15.48
2023-02-26T15:19:15.463Z,15.28
2023-02-26T15:22:01.096Z,15.19
2023-02-26T15:24:32.233Z,15.21
2023-02-26T15:27:04.111Z,15.24
2023-02-26T15:29:36.979Z,15.15
2023-02-26T15:32:14.917Z,15.15
2023-02-26T15:34:47.348Z,15.16
2023-02-26T15:37:24.662Z,14.99
2023-02-26T15:39:54.374Z,15.02
2023-02-26T15:42:28.873Z,14.97
2023-02-26T15:45:01.855Z,14.95
2023-02-26T15:47:32.567Z,14.84
2023-02-26T15:50:02.619Z,14.94
2023-02-26T15:52:33.980Z,14.83
2023-02-26T15:55:07.480Z,14.84
2023-02-26T15:57:37.638Z,14.82
2023-02-26T16:00:10.696Z,14.73
2023-02-26T16:02:44.615Z,14.74
2023-02-26T16:05:15.810Z,14.72
2023-02-26T16:07:46.808Z,14.56
2023-02-26T16:10:21.237Z,14.62
2023-02-26T16:12:53.165Z,14.47
2023-02-26T16:15:30.362Z,14.56
2023-02-26T16:18:03.234Z,14.53
2023-02-26T16:20:39.428Z,14.33
2023-02-26T16:23:15.414Z,14.42
2023-02-26T16:25:52.484Z,14.42
2023-02-26T16:28:23.827Z,14.43
2023-02-26T16:30:56.546Z,14.44
2023-02-26T16:33:27.879Z,14.37
2023-02-26T16:36:04.362Z,14.36
2023-02-26T16:38:44.715Z,14.35
2023-02-26T16:41:14.452Z,14.34
2023-02-26T16:43:53.015Z,14.33
2023-02-26T16:46:29.448Z,14.28
2023-02-26T16:49:03.839Z,14.34
2023-02-26T16:51:38.164Z,14.41
2023-02-26T16:54:17.049Z,14.33
2023-02-26T16:56:49.372Z,14.39
2023-02-26T16:59:21.872Z,14.42
2023-02-26T17:01:54.786Z,14.43
2023-02-26T17:04:29.096Z,14.46
2023-02-26T17:06:58.501Z,14.43
2023-02-26T17:09:38.931Z,14.39
2023-02-26T17:12:15.755Z,14.32
2023-02-26T17:14:46.811Z,14.35
2023-02-26T17:17:15.881Z,14.33
2023-02-26T17:19:45.426Z,14.39
2023-02-26T17:22:17.797Z,14.24
2023-02-26T17:24:49.668Z,14.36
2023-02-26T17:27:29.777Z,14.39
2023-02-26T17:29:59.716Z,14.40
2023-02-26T17:32:31.600Z,14.39
2023-02-26T17:35:02.034Z,14.40
2023-02-26T17:37:35.363Z,14.42
2023-02-26T17:40:17.295Z,14.43
2023-02-26T17:42:46.738Z,14.37
2023-02-26T17:45:16.491Z,14.30
2023-02-26T17:47:47.699Z,14.27
2023-02-26T17:50:30.759Z,14.32
2023-02-26T17:53:00.157Z,14.39
2023-02-26T17:55:35.899Z,14.44
2023-02-26T17:58:05.355Z,14.28
2023-02-26T18:00:39.967Z,14.39
2023-02-26T18:03:10.288Z,14.41
2023-02-26T18:05:41.884Z,14.23
2023-02-26T18:08:26.025Z,14.26
2023-02-26T18:10:58.915Z,14.22
2023-02-26T18:13:29.048Z,14.30
2023-02-26T18:15:59.179Z,14.17
2023-02-26T18:18:29.508Z,14.20
2023-02-26T18:20:59.152Z,14.16
2023-02-26T18:23:28.434Z,14.10
2023-02-26T18:25:59.686Z,14.17
2023-02-26T18:28:30.382Z,14.06
2023-02-26T18:30:59.964Z,14.17
2023-02-26T18:33:29.123Z,13.93
2023-02-26T18:35:59.313Z,14.07
2023-02-26T18:38:30.942Z,14.07
2023-02-26T18:41:03.230Z,14.14
2023-02-26T18:43:32.249Z,14.20
2023-02-26T18:46:02.369Z,14.17
2023-02-26T18:48:32.316Z,14.19
2023-02-26T18:51:01.432Z,14.14
2023-02-26T18:53:30.714Z,14.15
2023-02-26T18:55:59.844Z,14.14
2023-02-26T18:58:30.466Z,14.14
2023-02-26T19:00:59.758Z,14.19
2023-02-26T19:03:29.026Z,14.18
2023-02-26T19:05:59.644Z,14.12
2023-02-26T19:08:30.463Z,14.11
2023-02-26T19:11:00.386Z,14.07
2023-02-26T19:13:31.736Z,13.98
2023-02-26T19:16:01.099Z,14.00
2023-02-26T19:18:30.446Z,13.78
2023-02-26T19:21:02.090Z,13.75
2023-02-26T19:23:31.297Z,13.77
2023-02-26T19:26:00.336Z,13.90
2023-02-26T19:28:30.940Z,13.84
2023-02-26T19:31:00.509Z,13.96
2023-02-26T19:33:29.504Z,13.97
2023-02-26T19:35:58.898Z,14.04
2023-02-26T19:38:28.200Z,13.97
2023-02-26T19:40:58.070Z,14.01
2023-02-26T19:43:27.179Z,14.11
2023-02-26T19:45:57.791Z,14.14
2023-02-26T19:48:28.131Z,14.20
2023-02-26T19:50:58.415Z,14.20
2023-02-26T19:53:27.601Z,14.22
2023-02-26T19:55:56.798Z,14.17
2023-02-26T19:58:30.665Z,14.22
2023-02-26T20:01:04.462Z,14.08
2023-02-26T20:03:34.067Z,14.23
2023-02-26T20:06:03.820Z,14.11
2023-02-26T20:08:33.052Z,14.09
2023-02-26T20:11:02.470Z,14.13
2023-02-26T20:13:34.964Z,14.02
2023-02-26T20:16:08.586Z,14.10
2023-02-26T20:18:38.259Z,14.16
2023-02-26T20:21:09.833Z,14.11
2023-02-26T20:23:40.249Z,14.17
2023-02-26T20:26:12.206Z,14.05
2023-02-26T20:28:43.419Z,14.10
2023-02-26T20:31:14.503Z,13.99
2023-02-26T20:33:44.035Z,13.94
2023-02-26T20:36:13.612Z,14.07
2023-02-26T20:38:43.165Z,14.10
2023-02-26T20:41:12.376Z,14.10
2023-02-26T20:43:41.670Z,14.17
2023-02-26T20:46:10.890Z,14.15
2023-02-26T20:48:43.213Z,14.16
2023-02-26T20:51:12.403Z,14.18
2023-02-26T20:53:41.486Z,14.22
2023-02-26T20:56:10.575Z,14.28
2023-02-26T20:58:41.508Z,14.25
2023-02-26T21:01:10.677Z,14.31
2023-02-26T21:03:41.418Z,14.21
2023-02-26T21:06:11.130Z,14.29
2023-02-26T21:08:40.077Z,14.33
2023-02-26T21:11:10.256Z,14.30
2023-02-26T21:13:39.282Z,14.39
2023-02-26T21:16:08.672Z,14.36
2023-02-26T21:18:37.652Z,14.45
2023-02-26T21:21:08.400Z,14.47
2023-02-26T21:23:37.444Z,14.42
2023-02-26T21:26:07.309Z,14.47
2023-02-26T21:28:36.338Z,14.33
2023-02-26T21:31:05.529Z,14.42
2023-02-26T21:33:34.493Z,14.44
2023-02-26T21:36:03.505Z,14.33
2023-02-26T21:38:34.481Z,14.38
2023-02-26T21:41:04.278Z,14.40
2023-02-26T21:43:34.288Z,14.44
2023-02-26T21:46:03.437Z,14.49
2023-02-26T21:48:32.644Z,14.51
2023-02-26T21:51:01.776Z,14.46
2023-02-26T21:53:30.805Z,14.50
2023-02-26T21:56:01.190Z,14.49
2023-02-26T21:58:31.045Z,14.44
2023-02-26T22:01:02.064Z,14.39
2023-02-26T22:03:31.197Z,14.37
2023-02-26T22:06:00.196Z,14.30
2023-02-26T22:08:29.258Z,14.24
2023-02-26T22:10:58.160Z,14.18
2023-02-26T22:13:28.663Z,14.10
2023-02-26T22:15:57.650Z,14.08
2023-02-26T22:18:26.668Z,14.07
2023-02-26T22:20:55.862Z,13.95
2023-02-26T22:23:24.878Z,13.72
2023-02-26T22:25:53.849Z,13.60
2023-02-26T22:28:22.938Z,13.61
2023-02-26T22:30:56.411Z,13.51
2023-02-26T22:33:25.802Z,13.45
2023-02-26T22:35:57.296Z,13.35
2023-02-26T22:38:26.339Z,13.35
2023-02-26T22:40:55.640Z,13.35
2023-02-26T22:43:24.559Z,13.37
2023-02-26T22:45:54.967Z,13.37
2023-02-26T22:48:24.038Z,13.38
2023-02-26T22:50:53.100Z,13.42
2023-02-26T22:53:21.975Z,13.44
2023-02-26T22:55:51.057Z,13.47
2023-02-26T22:58:19.964Z,13.55
2023-02-26T23:00:49.215Z,13.55
2023-02-26T23:03:19.597Z,13.56
2023-02-26T23:05:50.350Z,13.63
2023-02-26T23:08:19.391Z,13.61
2023-02-26T23:10:48.555Z,13.62
2023-02-26T23:13:18.342Z,13.61
2023-02-26T23:15:47.832Z,13.59
2023-02-26T23:18:16.916Z,13.52
2023-02-26T23:20:47.699Z,13.56
2023-02-26T23:23:16.688Z,13.54
2023-02-26T23:25:46.039Z,13.61
2023-02-26T23:28:15.216Z,13.59
2023-02-26T23:30:44.396Z,13.62
2023-02-26T23:33:13.912Z,13.58
2023-02-26T23:35:42.866Z,13.66
2023-02-26T23:38:13.363Z,13.68
2023-02-26T23:40:42.441Z,13.66
2023-02-26T23:43:11.665Z,13.64
2023-02-26T23:45:40.705Z,13.26
2023-02-26T23:48:09.646Z,13.37
2023-02-26T23:50:38.552Z,13.43
2023-02-26T23:53:08.095Z,13.41
2023-02-26T23:55:38.425Z,13.47
2023-02-26T23:58:07.484Z,13.41
